Time;durP1;ratioP1;P1;durP2;ratioP2;P2;SDS_P1;SDS_P2;PMS_P1;PMS_P2;Temp;Humidity;BMP_temperature;BMP_pressure;BME280_temperature;BME280_humidity;BME280_pressure;Samples;Min_cycle;Max_cycle;Signal;HPM_P1;HPM_P2
2023/09/10 00:02:02;;;;;;;6.57;5.72;;;16.80;99.90;;;;;;5004732;28;20057;-69
2023/09/10 00:04:28;;;;;;;10.40;8.40;;;;;;;;;;5004142;28;20056;-67
2023/09/10 00:06:54;;;;;;;11.98;10.45;;;16.70;99.90;;;;;;5018497;28;20042;-69
2023/09/10 00:09:20;;;;;;;11.23;9.52;;;;;;;;;;5003946;28;20519;-69
2023/09/10 00:11:46;;;;;;;12.93;11.35;;;;;;;;;;5000627;28;20046;-69
2023/09/10 00:14:13;;;;;;;15.70;11.27;;;;;;;;;;5024331;28;20052;-69
2023/09/10 00:16:39;;;;;;;15.10;12.02;;;;;;;;;;5021279;28;20160;-68
2023/09/10 00:19:04;;;;;;;15.43;12.63;;;16.70;99.90;;;;;;5023461;28;20116;-69
2023/09/10 00:21:31;;;;;;;16.30;14.13;;;;;;;;;;5022629;28;20046;-68
2023/09/10 00:23:57;;;;;;;15.98;14.30;;;;;;;;;;5017858;28;20072;-69
2023/09/10 00:26:24;;;;;;;16.83;15.10;;;16.70;99.90;;;;;;5002960;28;20128;-69
2023/09/10 00:28:51;;;;;;;19.13;16.73;;;;;;;;;;5007051;28;20111;-69
2023/09/10 00:31:17;;;;;;;19.58;17.05;;;;;;;;;;5019915;28;20774;-68
2023/09/10 00:33:43;;;;;;;20.85;17.55;;;16.80;99.90;;;;;;5003093;28;21056;-69
2023/09/10 00:36:09;;;;;;;30.92;23.95;;;;;;;;;;5023299;28;20037;-67
2023/09/10 00:38:34;;;;;;;28.17;24.15;;;16.80;99.90;;;;;;5018097;28;20053;-68
2023/09/10 00:41:00;;;;;;;30.67;24.58;;;;;;;;;;5017952;28;20038;-68
2023/09/10 00:43:26;;;;;;;32.75;27.15;;;17.00;99.90;;;;;;5022460;28;20094;-68
2023/09/10 00:45:52;;;;;;;32.72;26.70;;;17.10;99.90;;;;;;5022222;28;20052;-68
2023/09/10 00:48:18;;;;;;;31.40;26.00;;;17.10;99.90;;;;;;5007830;28;20049;-68
2023/09/10 00:50:44;;;;;;;34.30;27.35;;;17.10;99.90;;;;;;5021010;28;20065;-68
2023/09/10 00:53:10;;;;;;;31.25;24.20;;;17.10;99.90;;;;;;5026072;28;20040;-68
2023/09/10 00:55:36;;;;;;;33.10;25.73;;;17.10;99.90;;;;;;5002353;28;20061;-68
2023/09/10 00:58:02;;;;;;;35.20;28.73;;;17.20;99.90;;;;;;5005646;28;20687;-68
2023/09/10 01:00:29;;;;;;;30.23;23.55;;;17.10;99.90;;;;;;5024351;28;20049;-69
2023/09/10 01:02:58;;;;;;;21.23;18.00;;;17.00;99.90;;;;;;5023277;28;20045;-69
2023/09/10 01:05:24;;;;;;;23.90;20.65;;;;;;;;;;5019753;28;20044;-69
2023/09/10 01:07:50;;;;;;;21.70;18.20;;;17.00;99.90;;;;;;5024392;28;20053;-69
2023/09/10 01:10:16;;;;;;;23.05;17.92;;;16.80;99.90;;;;;;5020208;28;20037;-69
2023/09/10 01:13:09;;;;;;;24.88;18.33;;;17.00;99.90;;;;;;5019343;28;20959;-69
2023/09/10 01:15:49;;;;;;;19.65;17.58;;;16.90;99.90;;;;;;5025270;28;20843;-70
2023/09/10 01:18:15;;;;;;;23.15;20.48;;;;;;;;;;5023513;28;20076;-69
2023/09/10 01:21:08;;;;;;;28.13;22.83;;;16.80;99.90;;;;;;5004551;28;20070;-69
2023/09/10 01:23:52;;;;;;;25.60;21.27;;;16.80;99.90;;;;;;5015274;28;20045;-69
2023/09/10 01:26:18;;;;;;;24.35;20.45;;;16.60;99.90;;;;;;5007842;28;20069;-69
2023/09/10 01:28:44;;;;;;;27.83;22.75;;;16.70;99.90;;;;;;5022497;28;20165;-70
2023/09/10 01:31:10;;;;;;;28.45;23.63;;;;;;;;;;5023575;28;20455;-69
2023/09/10 01:33:41;;;;;;;22.88;19.92;;;16.80;99.90;;;;;;5022411;28;20042;-69
2023/09/10 01:36:07;;;;;;;21.65;18.27;;;;;;;;;;5024866;28;20408;-68
2023/09/10 01:38:58;;;;;;;15.43;13.82;;;16.90;99.90;;;;;;4999121;28;20054;-69
2023/09/10 01:41:26;;;;;;;16.35;13.82;;;16.60;99.90;;;;;;5004470;28;20116;-68
2023/09/10 01:43:53;;;;;;;15.65;13.90;;;16.60;99.90;;;;;;5019014;28;20050;-69
2023/09/10 01:46:20;;;;;;;21.38;16.63;;;16.70;99.90;;;;;;5016401;28;20144;-69
2023/09/10 01:48:46;;;;;;;17.98;16.02;;;16.50;99.90;;;;;;5024005;28;20103;-69
2023/09/10 01:51:12;;;;;;;15.98;13.25;;;;;;;;;;5021363;28;20049;-68
2023/09/10 01:53:38;;;;;;;18.23;12.73;;;;;;;;;;5020795;28;20445;-69
2023/09/10 01:56:04;;;;;;;14.48;11.90;;;;;;;;;;5021619;28;20041;-69
2023/09/10 01:58:29;;;;;;;17.10;14.13;;;16.40;99.90;;;;;;5020952;28;20063;-69
2023/09/10 02:00:55;;;;;;;14.00;12.38;;;;;;;;;;5020055;28;20049;-69
2023/09/10 02:03:21;;;;;;;15.88;13.63;;;;;;;;;;5001266;28;20054;-69
2023/09/10 02:05:47;;;;;;;15.70;13.15;;;;;;;;;;5016501;28;20145;-69
2023/09/10 02:08:14;;;;;;;18.05;15.32;;;;;;;;;;5005999;28;20042;-67
2023/09/10 02:10:41;;;;;;;20.75;16.70;;;;;;;;;;5020648;28;20049;-68
2023/09/10 02:13:07;;;;;;;22.10;17.70;;;;;;;;;;5005752;28;20427;-68
2023/09/10 02:15:33;;;;;;;30.92;22.90;;;;;;;;;;5018970;28;20095;-68
2023/09/10 02:17:59;;;;;;;27.17;19.05;;;;;;;;;;5023605;28;20033;-68
2023/09/10 02:20:24;;;;;;;16.10;13.27;;;;;;;;;;4996177;28;20421;-68
2023/09/10 02:22:50;;;;;;;19.20;16.05;;;;;;;;;;5020242;28;20126;-68
2023/09/10 02:25:16;;;;;;;20.75;16.50;;;16.20;99.90;;;;;;5011595;28;20044;-67
2023/09/10 02:27:42;;;;;;;18.88;16.20;;;;;;;;;;5000751;28;20084;-68
2023/09/10 02:30:08;;;;;;;21.33;17.52;;;;;;;;;;5001026;28;20050;-68
2023/09/10 02:32:35;;;;;;;25.50;19.30;;;16.20;99.90;;;;;;4996795;28;20511;-68
2023/09/10 02:35:01;;;;;;;24.63;20.70;;;;;;;;;;5016972;28;20045;-69
2023/09/10 02:37:26;;;;;;;31.17;23.10;;;16.20;99.90;;;;;;5003105;28;20526;-69
2023/09/10 02:39:52;;;;;;;26.35;21.92;;;;;;;;;;5003594;28;20056;-68
2023/09/10 02:42:18;;;;;;;24.73;20.65;;;;;;;;;;5023011;28;20103;-68
2023/09/10 02:44:44;;;;;;;26.70;22.45;;;;;;;;;;5018625;28;20049;-68
2023/09/10 02:47:10;;;;;;;27.58;22.63;;;;;;;;;;5020666;28;20128;-69
2023/09/10 02:49:36;;;;;;;23.83;20.02;;;;;;;;;;4996377;28;20107;-68
2023/09/10 02:52:02;;;;;;;19.42;14.13;;;;;;;;;;5025294;28;20095;-67
2023/09/10 02:54:29;;;;;;;16.75;14.73;;;16.20;99.90;;;;;;5025439;28;20052;-68
2023/09/10 02:56:55;;;;;;;14.98;13.43;;;;;;;;;;5005084;28;20037;-68
2023/09/10 02:59:22;;;;;;;17.30;13.63;;;16.20;99.90;;;;;;4990448;28;20515;-68
2023/09/10 03:01:48;;;;;;;17.30;14.85;;;;;;;;;;5020941;28;20140;-68
2023/09/10 03:04:14;;;;;;;18.17;15.05;;;16.00;99.90;;;;;;5004887;28;20071;-69
2023/09/10 03:06:44;;;;;;;17.65;15.52;;;16.00;99.90;;;;;;5021220;28;20052;-69
2023/09/10 03:09:11;;;;;;;22.05;19.00;;;;;;;;;;5017501;28;20053;-69
2023/09/10 03:11:38;;;;;;;23.70;18.30;;;16.20;99.90;;;;;;5017570;28;21305;-69
2023/09/10 03:14:04;;;;;;;16.70;14.30;;;16.10;99.90;;;;;;5023791;28;20037;-69
2023/09/10 03:16:31;;;;;;;16.13;13.25;;;;;;;;;;5018954;28;20043;-69
2023/09/10 03:18:56;;;;;;;18.58;14.57;;;16.20;99.90;;;;;;5011882;28;20152;-69
2023/09/10 03:21:22;;;;;;;15.30;13.07;;;16.00;99.90;;;;;;5018440;28;20125;-69
2023/09/10 03:23:47;;;;;;;14.45;12.52;;;15.90;99.90;;;;;;5021066;28;20041;-68
2023/09/10 03:26:13;;;;;;;17.33;13.57;;;;;;;;;;5024134;28;20099;-68
2023/09/10 03:28:40;;;;;;;18.08;15.70;;;15.90;99.90;;;;;;5006132;28;20046;-69
2023/09/10 03:31:06;;;;;;;15.73;13.07;;;;;;;;;;5005821;28;20041;-68
2023/09/10 03:33:32;;;;;;;13.70;11.90;;;15.90;99.90;;;;;;5005470;28;20099;-69
2023/09/10 03:35:57;;;;;;;13.02;11.55;;;15.80;99.90;;;;;;5020509;28;20037;-69
2023/09/10 03:38:23;;;;;;;12.27;10.98;;;;;;;;;;5021360;28;20045;-68
2023/09/10 03:40:49;;;;;;;15.73;13.82;;;;;;;;;;5024378;28;20047;-69
2023/09/10 03:43:16;;;;;;;15.93;13.48;;;15.70;99.90;;;;;;5005477;28;20045;-69
2023/09/10 03:45:42;;;;;;;16.85;13.35;;;;;;;;;;5021780;28;20060;-68
2023/09/10 03:48:07;;;;;;;15.32;12.80;;;15.60;99.90;;;;;;5007010;28;20045;-70
2023/09/10 03:50:34;;;;;;;14.40;12.90;;;15.60;99.90;;;;;;5025324;28;20745;-69
2023/09/10 03:53:00;;;;;;;17.30;14.30;;;;;;;;;;5024859;28;20045;-69
2023/09/10 03:55:26;;;;;;;15.95;13.43;;;;;;;;;;5006855;28;20050;-69
2023/09/10 03:57:52;;;;;;;16.63;14.10;;;;;;;;;;5004526;28;20056;-69
2023/09/10 04:00:19;;;;;;;19.80;15.35;;;15.60;99.90;;;;;;5027265;28;20451;-69
2023/09/10 04:02:45;;;;;;;23.05;19.95;;;;;;;;;;5008298;28;20042;-70
2023/09/10 04:05:14;;;;;;;19.65;17.17;;;15.50;99.90;;;;;;5027325;28;20045;-68
2023/09/10 04:07:40;;;;;;;18.10;15.02;;;;;;;;;;5005635;28;20569;-70
2023/09/10 04:10:07;;;;;;;14.10;12.63;;;15.80;99.90;;;;;;5025233;28;20515;-69
2023/09/10 04:12:33;;;;;;;14.52;12.95;;;15.70;99.90;;;;;;5026311;28;20037;-69
2023/09/10 04:14:59;;;;;;;17.88;15.13;;;;;;;;;;5024175;28;20052;-68
2023/09/10 04:17:29;;;;;;;16.10;13.73;;;;;;;;;;5008285;28;20053;-69
2023/09/10 04:19:58;;;;;;;17.27;13.45;;;15.00;99.90;;;;;;5008776;28;20053;-69
2023/09/10 04:22:24;;;;;;;20.35;15.57;;;;;;;;;;5026284;28;20045;-69
2023/09/10 04:24:50;;;;;;;28.58;24.58;;;;;;;;;;5025789;28;20049;-69
2023/09/10 04:27:16;;;;;;;19.40;16.23;;;15.60;99.90;;;;;;5027284;28;20045;-69
2023/09/10 04:29:42;;;;;;;14.10;12.07;;;;;;;;;;4991149;28;20057;-69
2023/09/10 04:32:08;;;;;;;11.00;9.70;;;15.50;99.90;;;;;;5008009;28;20041;-69
2023/09/10 04:34:33;;;;;;;11.32;9.88;;;15.50;99.90;;;;;;5016536;28;20041;-70
2023/09/10 04:36:59;;;;;;;13.95;11.32;;;;;;;;;;4997295;28;20401;-68
2023/09/10 04:39:26;;;;;;;14.60;13.18;;;15.40;99.90;;;;;;5007579;28;20799;-68
2023/09/10 04:41:52;;;;;;;17.23;15.45;;;;;;;;;;5008366;28;20045;-69
2023/09/10 04:44:17;;;;;;;14.52;13.02;;;15.30;99.90;;;;;;5008187;28;20133;-69
2023/09/10 04:46:43;;;;;;;14.23;12.73;;;;;;;;;;5026302;28;20140;-69
2023/09/10 04:49:09;;;;;;;20.35;16.67;;;15.40;99.90;;;;;;5026354;28;20117;-69
2023/09/10 04:51:35;;;;;;;20.33;16.85;;;;;;;;;;5025319;28;20411;-68
2023/09/10 04:54:01;;;;;;;18.02;16.17;;;;;;;;;;5001815;28;20159;-69
2023/09/10 04:56:27;;;;;;;15.95;13.98;;;;;;;;;;5026760;28;20504;-68
2023/09/10 04:58:53;;;;;;;15.85;14.15;;;;;;;;;;5007368;28;20091;-68
2023/09/10 05:01:19;;;;;;;18.13;16.23;;;;;;;;;;5019763;28;20055;-70
2023/09/10 05:03:44;;;;;;;22.27;18.88;;;15.40;99.90;;;;;;5001078;28;20450;-69
2023/09/10 05:06:12;;;;;;;19.17;16.40;;;;;;;;;;5006120;28;20065;-70
2023/09/10 05:08:38;;;;;;;22.30;16.60;;;;;;;;;;5006787;28;20629;-69
2023/09/10 05:11:04;;;;;;;17.30;15.50;;;15.60;99.90;;;;;;5025783;28;20039;-69
2023/09/10 05:13:30;;;;;;;17.50;15.13;;;;;;;;;;5019886;28;20045;-68
2023/09/10 05:15:57;;;;;;;18.67;14.73;;;;;;;;;;5026108;28;20042;-69
2023/09/10 05:18:24;;;;;;;15.25;13.50;;;15.40;99.90;;;;;;5000875;28;20132;-68
2023/09/10 05:20:53;;;;;;;15.52;13.43;;;15.50;99.90;;;;;;5023614;28;20037;-69
2023/09/10 05:23:23;;;;;;;15.32;12.27;;;15.70;99.90;;;;;;5021743;28;20436;-68
2023/09/10 05:25:49;;;;;;;13.25;11.40;;;15.30;99.90;;;;;;5017188;28;20046;-68
2023/09/10 05:28:16;;;;;;;11.93;10.68;;;;;;;;;;5025872;28;20044;-68
2023/09/10 05:30:42;;;;;;;15.70;13.55;;;;;;;;;;5025346;28;20060;-68
2023/09/10 05:33:08;;;;;;;14.20;12.70;;;;;;;;;;5026207;28;20120;-68
2023/09/10 05:35:34;;;;;;;19.08;15.23;;;;;;;;;;5004760;28;20451;-69
2023/09/10 05:37:59;;;;;;;25.70;20.35;;;15.30;99.90;;;;;;5021668;28;20030;-68
2023/09/10 05:40:25;;;;;;;18.98;16.85;;;;;;;;;;5015067;28;20092;-69
2023/09/10 05:42:51;;;;;;;19.30;16.88;;;;;;;;;;5022480;28;20041;-68
2023/09/10 05:45:18;;;;;;;23.20;18.77;;;15.70;99.90;;;;;;5019411;28;20799;-68
2023/09/10 05:47:44;;;;;;;20.23;16.88;;;;;;;;;;5017901;28;20040;-68
2023/09/10 05:50:10;;;;;;;21.25;16.88;;;15.60;99.90;;;;;;4981578;28;20050;-69
2023/09/10 05:52:36;;;;;;;19.83;15.63;;;;;;;;;;5004527;28;20124;-70
2023/09/10 05:55:02;;;;;;;15.30;13.48;;;;;;;;;;5020625;28;20046;-70
2023/09/10 05:57:28;;;;;;;18.20;15.02;;;;;;;;;;5005303;28;20057;-70
2023/09/10 05:59:54;;;;;;;18.85;14.73;;;;;;;;;;5022075;28;20053;-70
2023/09/10 06:02:20;;;;;;;19.60;15.90;;;15.90;99.90;;;;;;5020614;28;20099;-70
2023/09/10 06:04:46;;;;;;;17.08;14.65;;;;;;;;;;5016288;28;20422;-70
2023/09/10 06:07:11;;;;;;;17.08;13.38;;;15.90;99.90;;;;;;5023504;28;20496;-70
2023/09/10 06:09:37;;;;;;;16.52;13.57;;;16.10;99.90;;;;;;4998349;28;20783;-72
2023/09/10 06:12:03;;;;;;;23.75;19.83;;;;;;;;;;5003149;28;20033;-72
2023/09/10 06:14:30;;;;;;;26.08;21.60;;;;;;;;;;5004695;28;20056;-72
2023/09/10 06:16:56;;;;;;;27.85;22.88;;;16.50;99.90;;;;;;5022256;28;20048;-71
2023/09/10 06:19:22;;;;;;;32.50;23.23;;;16.80;99.90;;;;;;5016816;28;20496;-72
2023/09/10 06:21:47;;;;;;;27.38;23.95;;;16.90;99.90;;;;;;5018875;28;20048;-71
2023/09/10 06:24:13;;;;;;;30.38;24.73;;;;;;;;;;5003302;28;20045;-71
2023/09/10 06:26:39;;;;;;;33.60;26.42;;;;;;;;;;5003031;28;20080;-72
2023/09/10 06:29:05;;;;;;;29.95;24.23;;;;;;;;;;4993694;28;21197;-71
2023/09/10 06:31:31;;;;;;;33.33;27.48;;;17.40;99.90;;;;;;5002616;28;20125;-71
2023/09/10 06:33:57;;;;;;;30.90;25.75;;;;;;;;;;4998139;28;20041;-71
2023/09/10 06:36:23;;;;;;;33.65;27.20;;;17.80;99.90;;;;;;5001082;28;20914;-72
2023/09/10 06:38:49;;;;;;;31.02;24.85;;;18.00;99.90;;;;;;4995518;28;20053;-72
2023/09/10 06:41:15;;;;;;;34.38;27.80;;;18.10;99.90;;;;;;5000267;28;20057;-72
2023/09/10 06:43:41;;;;;;;33.55;26.88;;;18.30;99.90;;;;;;5014740;28;20128;-71
2023/09/10 06:46:06;;;;;;;34.65;29.27;;;18.30;99.90;;;;;;5015399;28;20053;-72
2023/09/10 06:48:32;;;;;;;35.80;29.52;;;18.40;99.90;;;;;;5020742;28;20428;-72
2023/09/10 06:51:00;;;;;;;35.65;28.60;;;18.50;99.90;;;;;;5019314;28;20556;-73
2023/09/10 06:53:26;;;;;;;33.70;28.55;;;18.70;99.90;;;;;;5011212;28;20065;-73
2023/09/10 06:55:53;;;;;;;37.53;30.38;;;18.70;99.90;;;;;;5002471;28;20037;-73
2023/09/10 06:58:19;;;;;;;34.45;29.05;;;18.80;99.90;;;;;;5022350;28;20056;-72
2023/09/10 07:00:45;;;;;;;39.78;29.75;;;;;;;;;;5018829;28;20054;-71
2023/09/10 07:03:13;;;;;;;41.88;31.48;;;19.00;99.90;;;;;;5017531;28;20131;-72
2023/09/10 07:05:40;;;;;;;36.53;30.92;;;19.10;99.90;;;;;;5002379;28;20718;-71
2023/09/10 07:08:06;;;;;;;39.95;31.25;;;19.30;99.90;;;;;;5014748;28;20060;-72
2023/09/10 07:10:33;;;;;;;42.35;33.47;;;19.20;99.90;;;;;;5003580;28;20041;-72
2023/09/10 07:12:59;;;;;;;40.33;32.20;;;19.70;99.90;;;;;;5021536;28;20601;-72
2023/09/10 07:15:24;;;;;;;42.58;33.42;;;19.80;99.90;;;;;;5021185;28;20072;-72
2023/09/10 07:17:50;;;;;;;42.05;33.10;;;20.00;99.90;;;;;;5021075;28;20045;-71
2023/09/10 07:20:16;;;;;;;43.38;35.42;;;20.10;99.90;;;;;;5010437;28;20567;-71
2023/09/10 07:22:42;;;;;;;41.72;32.47;;;20.20;99.90;;;;;;5020616;28;20056;-72
2023/09/10 07:25:08;;;;;;;40.33;31.65;;;20.40;99.90;;;;;;5021647;28;20049;-72
2023/09/10 07:27:34;;;;;;;39.83;31.73;;;20.20;99.90;;;;;;5019591;28;20045;-72
2023/09/10 07:30:00;;;;;;;38.75;31.55;;;;;;;;;;5014958;28;20050;-71
2023/09/10 07:32:25;;;;;;;40.53;33.20;;;20.60;99.90;;;;;;5021923;28;20052;-71
2023/09/10 07:34:51;;;;;;;39.15;30.73;;;20.90;99.90;;;;;;5004064;28;20041;-71
2023/09/10 07:37:16;;;;;;;36.78;29.70;;;21.10;99.90;;;;;;5015782;28;20120;-71
2023/09/10 07:39:42;;;;;;;36.17;29.70;;;21.10;99.90;;;;;;5022222;28;20446;-71
2023/09/10 07:42:07;;;;;;;33.47;29.35;;;21.30;99.90;;;;;;5011720;28;20048;-70
2023/09/10 07:44:33;;;;;;;36.67;28.33;;;21.50;99.90;;;;;;5017883;28;20033;-71
2023/09/10 07:46:58;;;;;;;35.72;29.50;;;21.60;99.90;;;;;;5021290;28;20260;-71
2023/09/10 07:49:24;;;;;;;34.28;29.02;;;21.50;99.90;;;;;;5021901;28;20081;-70
2023/09/10 07:51:49;;;;;;;33.55;27.63;;;21.60;99.90;;;;;;5010846;28;20443;-70
2023/09/10 07:54:15;;;;;;;34.55;30.02;;;21.60;99.90;;;;;;4999173;28;20148;-71
2023/09/10 07:56:41;;;;;;;35.53;28.73;;;21.30;99.90;;;;;;5013293;28;20041;-70
2023/09/10 07:59:09;;;;;;;30.98;26.67;;;21.60;99.90;;;;;;5004663;28;20139;-70
2023/09/10 08:01:35;;;;;;;32.08;26.67;;;21.70;99.90;;;;;;5022726;28;21005;-73
2023/09/10 08:04:00;;;;;;;32.50;27.65;;;21.80;99.90;;;;;;5018761;28;20042;-70
2023/09/10 08:06:26;;;;;;;40.00;28.63;;;22.20;99.90;;;;;;5016636;28;20080;-70
2023/09/10 08:08:51;;;;;;;33.85;29.45;;;22.10;99.90;;;;;;5018863;28;20049;-70
2023/09/10 08:11:17;;;;;;;35.05;28.48;;;22.40;99.90;;;;;;5019652;28;20045;-69
2023/09/10 08:13:43;;;;;;;34.92;29.00;;;22.20;99.90;;;;;;5022610;28;20464;-71
2023/09/10 08:16:13;;;;;;;37.50;27.83;;;22.40;99.90;;;;;;4975252;28;20038;-72
2023/09/10 08:18:39;;;;;;;33.13;27.17;;;22.30;99.90;;;;;;5017761;28;20041;-68
2023/09/10 08:21:04;;;;;;;34.60;27.85;;;22.50;99.90;;;;;;5017636;28;20042;-71
2023/09/10 08:23:30;;;;;;;37.35;27.75;;;22.70;99.90;;;;;;5000965;28;20510;-68
2023/09/10 08:25:56;;;;;;;29.98;25.50;;;22.70;99.90;;;;;;5020289;28;20799;-68
2023/09/10 08:28:21;;;;;;;35.35;24.55;;;22.70;99.90;;;;;;5017183;28;20788;-71
2023/09/10 08:30:47;;;;;;;29.95;23.85;;;23.10;99.90;;;;;;5017930;28;20042;-70
2023/09/10 08:33:12;;;;;;;30.48;23.45;;;22.90;99.90;;;;;;5016990;28;20034;-71
2023/09/10 08:35:51;;;;;;;31.02;22.30;;;23.10;99.90;;;;;;4995524;28;20120;-71
2023/09/10 08:38:17;;;;;;;25.77;22.10;;;23.00;99.90;;;;;;5021143;28;20128;-69
2023/09/10 08:40:52;;;;;;;25.13;21.70;;;23.00;99.90;;;;;;5014746;28;20167;-71
2023/09/10 08:43:22;;;;;;;26.45;21.25;;;23.10;99.90;;;;;;5010319;28;20434;-71
2023/09/10 08:45:49;;;;;;;24.88;18.15;;;23.30;99.90;;;;;;5028111;28;20037;-71
2023/09/10 08:48:17;;;;;;;21.85;18.50;;;23.50;99.90;;;;;;5027203;28;20400;-71
2023/09/10 08:50:45;;;;;;;25.67;21.83;;;23.40;99.90;;;;;;4991476;28;20092;-71
2023/09/10 08:53:13;;;;;;;22.92;17.38;;;23.80;99.90;;;;;;5026621;28;20079;-70
2023/09/10 08:55:41;;;;;;;23.55;19.75;;;23.70;99.90;;;;;;5024680;28;20156;-71
2023/09/10 08:58:09;;;;;;;25.02;18.75;;;24.00;99.90;;;;;;5010390;28;20041;-69
2023/09/10 09:00:36;;;;;;;23.45;17.85;;;23.90;99.90;;;;;;5026465;28;20058;-71
2023/09/10 09:03:03;;;;;;;21.65;16.88;;;23.90;99.90;;;;;;5026436;28;20084;-68
2023/09/10 09:05:31;;;;;;;22.40;15.90;;;24.20;99.90;;;;;;5009081;28;20049;-68
2023/09/10 09:08:08;;;;;;;23.30;17.45;;;24.20;99.90;;;;;;5026873;28;20067;-70
2023/09/10 09:10:34;;;;;;;18.98;16.08;;;24.50;99.90;;;;;;5025011;28;20412;-70
2023/09/10 09:13:05;;;;;;;21.08;15.25;;;24.30;99.90;;;;;;5010068;28;20041;-71
2023/09/10 09:15:32;;;;;;;22.70;15.65;;;24.40;99.90;;;;;;5009547;28;20041;-71
2023/09/10 09:17:58;;;;;;;23.00;15.93;;;24.40;99.90;;;;;;5009757;28;20087;-69
2023/09/10 09:20:25;;;;;;;17.27;14.35;;;24.40;99.90;;;;;;5026259;28;20049;-71
2023/09/10 09:22:58;;;;;;;17.90;14.20;;;24.80;99.90;;;;;;5007136;28;20041;-71
2023/09/10 09:25:23;;;;;;;16.17;14.52;;;24.90;99.90;;;;;;5026505;28;20037;-71
2023/09/10 09:27:50;;;;;;;19.60;14.77;;;25.00;99.90;;;;;;5026587;28;20045;-70
2023/09/10 09:30:15;;;;;;;19.30;13.88;;;25.20;99.90;;;;;;4996562;28;20038;-68
2023/09/10 09:32:42;;;;;;;21.65;15.68;;;25.20;99.90;;;;;;5020296;28;20041;-70
2023/09/10 09:35:11;;;;;;;16.70;12.95;;;25.50;99.90;;;;;;4992879;28;20548;-70
2023/09/10 09:37:37;;;;;;;17.20;13.40;;;25.80;99.90;;;;;;5008420;28;20415;-70
2023/09/10 09:40:04;;;;;;;15.27;13.63;;;25.60;99.90;;;;;;5008103;28;20037;-68
2023/09/10 09:42:30;;;;;;;18.52;12.88;;;25.70;99.90;;;;;;5026896;28;20478;-70
2023/09/10 09:44:57;;;;;;;16.60;12.10;;;25.90;99.90;;;;;;5024509;28;20485;-69
2023/09/10 09:47:23;;;;;;;17.75;12.82;;;25.70;99.90;;;;;;5023248;28;20838;-70
2023/09/10 09:49:49;;;;;;;17.73;12.63;;;27.80;99.90;;;;;;5022835;28;20068;-70
2023/09/10 09:52:18;;;;;;;16.42;12.77;;;26.10;99.90;;;;;;5025676;28;20570;-69
2023/09/10 09:54:45;;;;;;;21.13;13.00;;;26.00;99.90;;;;;;5019725;28;20037;-70
2023/09/10 09:57:11;;;;;;;16.42;12.05;;;26.30;99.90;;;;;;5007356;28;20043;-70
2023/09/10 09:59:37;;;;;;;16.55;10.20;;;26.20;99.90;;;;;;5025150;28;20049;-69
2023/09/10 10:02:03;;;;;;;14.85;11.27;;;26.40;99.90;;;;;;5026431;28;20041;-69
2023/09/10 10:04:32;;;;;;;14.98;11.98;;;26.40;99.90;;;;;;5026459;28;20041;-70
2023/09/10 10:06:58;;;;;;;17.85;10.18;;;26.80;99.90;;;;;;5008930;28;20057;-70
2023/09/10 10:09:36;;;;;;;13.30;10.23;;;26.70;99.90;;;;;;5025503;28;20063;-70
2023/09/10 10:12:06;;;;;;;17.00;11.57;;;26.50;99.90;;;;;;5021909;28;20564;-68
2023/09/10 10:14:32;;;;;;;17.20;10.13;;;26.50;99.90;;;;;;5011882;28;20087;-67
2023/09/10 10:17:01;;;;;;;14.10;10.32;;;26.50;99.90;;;;;;5006931;28;20629;-66
2023/09/10 10:19:29;;;;;;;13.50;10.40;;;26.50;99.90;;;;;;5009445;28;20128;-67
2023/09/10 10:21:55;;;;;;;14.02;9.13;;;26.60;99.90;;;;;;5012413;28;20523;-64
2023/09/10 10:24:22;;;;;;;15.20;10.82;;;26.40;99.90;;;;;;5005110;28;20045;-67
2023/09/10 10:26:49;;;;;;;15.35;9.13;;;26.40;99.90;;;;;;5025868;28;20557;-66
2023/09/10 10:29:17;;;;;;;17.17;9.13;;;26.00;99.90;;;;;;5006827;28;20095;-67
2023/09/10 10:31:47;;;;;;;14.57;10.48;;;26.00;99.90;;;;;;5025847;28;20120;-67
2023/09/10 10:34:18;;;;;;;14.77;9.93;;;26.00;99.90;;;;;;5007491;28;20541;-66
2023/09/10 10:37:14;;;;;;;13.77;10.27;;;26.00;99.90;;;;;;5004487;28;20110;-67
2023/09/10 10:39:52;;;;;;;21.77;9.35;;;26.40;99.90;;;;;;5005996;28;20053;-68
2023/09/10 10:42:24;;;;;;;20.77;9.85;;;26.40;99.90;;;;;;5002686;28;20528;-65
2023/09/10 10:44:52;;;;;;;15.95;10.38;;;26.20;99.90;;;;;;4987064;28;20052;-68
2023/09/10 10:47:22;;;;;;;16.50;10.68;;;26.00;99.90;;;;;;5024321;28;20041;-67
2023/09/10 10:49:53;;;;;;;13.45;9.73;;;26.30;99.90;;;;;;5024684;28;20038;-66
2023/09/10 10:52:30;;;;;;;20.50;10.50;;;26.50;99.90;;;;;;5007058;28;20041;-67
2023/09/10 10:54:56;;;;;;;18.33;9.90;;;26.60;99.90;;;;;;5022709;28;20493;-67
2023/09/10 10:57:23;;;;;;;20.50;10.43;;;26.70;99.90;;;;;;5025367;28;20041;-69
2023/09/10 10:59:50;;;;;;;11.52;8.05;;;26.50;99.90;;;;;;5024816;28;20053;-67
2023/09/10 11:02:23;;;;;;;18.52;9.85;;;26.50;99.90;;;;;;5025346;28;20041;-68
2023/09/10 11:05:00;;;;;;;19.23;10.02;;;26.70;99.90;;;;;;5025875;28;20108;-67
2023/09/10 11:07:29;;;;;;;16.35;9.40;;;26.30;99.90;;;;;;5007112;28;20046;-69
2023/09/10 11:10:27;;;;;;;14.95;9.35;;;26.60;99.90;;;;;;5025796;28;20103;-68
2023/09/10 11:13:08;;;;;;;18.13;9.13;;;26.60;99.90;;;;;;4999668;28;20052;-69
2023/09/10 11:15:34;;;;;;;15.10;9.65;;;26.60;99.90;;;;;;5006086;28;20052;-69
2023/09/10 11:18:38;;;;;;;19.70;9.07;;;26.50;99.90;;;;;;5006861;28;20415;-65
2023/09/10 11:21:16;;;;;;;15.90;10.20;;;26.60;99.90;;;;;;4990972;28;20056;-68
2023/09/10 11:23:54;;;;;;;21.75;9.77;;;26.80;99.90;;;;;;5023491;28;20459;-70
2023/09/10 11:26:20;;;;;;;15.35;8.88;;;26.80;99.90;;;;;;4992550;28;20046;-66
2023/09/10 11:28:52;;;;;;;16.02;8.70;;;26.70;99.90;;;;;;5004775;28;20052;-69
2023/09/10 11:34:27;;;;;;;24.75;9.18;;;26.70;99.90;;;;;;5017820;28;20111;-66
2023/09/10 11:37:02;;;;;;;14.48;8.52;;;26.80;99.90;;;;;;4999996;28;20058;-68
2023/09/10 11:39:29;;;;;;;21.67;8.63;;;27.60;99.90;;;;;;5014193;28;20041;-69
2023/09/10 11:41:56;;;;;;;18.42;8.77;;;26.80;99.90;;;;;;4993908;28;20129;-68
2023/09/10 11:44:22;;;;;;;20.02;8.13;;;26.80;99.90;;;;;;5004492;28;20231;-69
2023/09/10 11:46:49;;;;;;;17.65;9.00;;;26.90;99.90;;;;;;5005473;28;20165;-70
2023/09/10 11:49:15;;;;;;;21.23;8.60;;;26.90;99.90;;;;;;5006861;28;20041;-69
2023/09/10 11:51:42;;;;;;;20.25;8.48;;;26.70;99.90;;;;;;5024181;28;20068;-68
2023/09/10 11:54:08;;;;;;;24.95;9.63;;;27.10;99.90;;;;;;5006281;28;20124;-69
2023/09/10 11:56:34;;;;;;;18.65;8.18;;;26.50;99.90;;;;;;5020827;28;20041;-67
2023/09/10 11:59:00;;;;;;;17.85;9.45;;;26.50;99.90;;;;;;4989993;28;20068;-69
2023/09/10 12:01:26;;;;;;;20.02;8.43;;;26.80;99.90;;;;;;5024541;28;20052;-69
2023/09/10 12:03:51;;;;;;;33.90;9.43;;;26.90;99.90;;;;;;5023486;28;20037;-68
2023/09/10 12:06:17;;;;;;;21.02;9.02;;;27.00;99.90;;;;;;5022886;28;20075;-68
2023/09/10 12:08:44;;;;;;;17.30;8.88;;;27.20;99.90;;;;;;5024482;28;20128;-68
2023/09/10 12:11:14;;;;;;;14.73;8.13;;;27.00;99.90;;;;;;5010473;28;20041;-68
2023/09/10 12:13:40;;;;;;;17.02;8.48;;;27.20;99.90;;;;;;4994066;28;20049;-68
2023/09/10 12:16:06;;;;;;;24.50;10.23;;;26.80;99.90;;;;;;5027873;28;20056;-67
2023/09/10 12:18:33;;;;;;;22.08;7.78;;;27.00;99.90;;;;;;5028316;28;20587;-68
2023/09/10 12:20:59;;;;;;;16.65;8.50;;;27.00;99.90;;;;;;5007287;28;20177;-69
2023/09/10 12:23:25;;;;;;;17.42;8.40;;;26.70;99.90;;;;;;5023868;28;20467;-69
2023/09/10 12:25:58;;;;;;;19.63;8.15;;;26.70;99.90;;;;;;5027291;28;20033;-68
2023/09/10 12:28:24;;;;;;;15.77;8.27;;;27.80;99.90;;;;;;5010093;28;20381;-69
2023/09/10 12:30:50;;;;;;;21.20;8.70;;;27.30;99.90;;;;;;5006721;28;20046;-68
2023/09/10 12:33:16;;;;;;;24.20;8.20;;;27.10;99.90;;;;;;5028008;28;20109;-67
2023/09/10 12:35:42;;;;;;;18.50;7.93;;;28.90;99.90;;;;;;5026129;28;20116;-65
2023/09/10 12:38:08;;;;;;;25.10;8.88;;;27.20;99.90;;;;;;5027920;28;20041;-69
2023/09/10 12:40:34;;;;;;;15.35;7.65;;;27.00;99.90;;;;;;5024340;28;20401;-68
2023/09/10 12:43:00;;;;;;;23.13;8.00;;;27.00;99.90;;;;;;5007951;28;20081;-67
2023/09/10 12:45:26;;;;;;;16.60;7.75;;;27.00;99.90;;;;;;5024747;28;20128;-69
2023/09/10 12:47:52;;;;;;;25.60;9.25;;;27.20;99.90;;;;;;5009670;28;20382;-69
2023/09/10 12:50:18;;;;;;;23.48;8.55;;;27.20;99.90;;;;;;5009281;28;20053;-66
2023/09/10 12:52:44;;;;;;;19.13;8.57;;;27.30;99.90;;;;;;5009750;28;20088;-69
2023/09/10 12:55:10;;;;;;;21.13;7.10;;;27.00;99.90;;;;;;5027035;28;20037;-68
2023/09/10 12:57:35;;;;;;;19.90;7.60;;;27.10;99.90;;;;;;5009701;28;20057;-68
2023/09/10 13:00:03;;;;;;;24.40;7.68;;;27.20;99.90;;;;;;5006793;28;20076;-69
2023/09/10 13:02:33;;;;;;;19.35;7.25;;;27.50;99.90;;;;;;5021792;28;20049;-67